createdAt,value
2023-02-14T00:02:11.187Z,10.07
2023-02-14T00:05:14.345Z,12.47
2023-02-14T00:08:17.565Z,15.27
2023-02-14T00:11:21.528Z,15.90
2023-02-14T00:14:42.178Z,14.67
2023-02-14T00:17:46.770Z,12.70
2023-02-14T00:20:49.935Z,16.30
2023-02-14T00:23:53.096Z,13.10
2023-02-14T00:26:56.328Z,12.30
2023-02-14T00:30:03.192Z,13.83
2023-02-14T00:33:07.803Z,14.40
2023-02-14T00:36:12.510Z,13.87
2023-02-14T00:39:16.902Z,11.47
2023-02-14T00:42:20.636Z,11.40
2023-02-14T00:45:24.315Z,16.13
2023-02-14T00:48:28.929Z,19.80
2023-02-14T00:51:32.395Z,12.07
2023-02-14T00:54:35.536Z,11.17
2023-02-14T00:57:38.704Z,15.70
2023-02-14T01:00:41.945Z,13.90
2023-02-14T01:03:46.657Z,15.07
2023-02-14T01:06:49.865Z,17.67
2023-02-14T01:09:53.031Z,15.30
2023-02-14T01:12:56.196Z,12.80
2023-02-14T01:15:59.357Z,12.20
2023-02-14T01:19:04.074Z,12.70
2023-02-14T01:22:07.220Z,16.67
2023-02-14T01:25:10.658Z,14.07
2023-02-14T01:28:13.900Z,12.60
2023-02-14T01:31:19.033Z,14.10
2023-02-14T01:34:23.759Z,15.27
2023-02-14T01:37:27.324Z,13.73
2023-02-14T01:40:30.487Z,15.20
2023-02-14T01:43:33.794Z,17.00
2023-02-14T01:46:39.036Z,13.47
2023-02-14T01:49:47.634Z,15.87
2023-02-14T01:52:53.921Z,16.97
2023-02-14T01:56:03.664Z,14.33
2023-02-14T01:59:10.052Z,17.07
2023-02-14T02:02:13.476Z,14.40
2023-02-14T02:05:23.931Z,15.47
2023-02-14T02:08:27.464Z,15.73
2023-02-14T02:11:30.671Z,12.63
2023-02-14T02:14:34.550Z,14.30
2023-02-14T02:17:49.167Z,12.90
2023-02-14T02:21:14.845Z,13.03
2023-02-14T02:24:34.398Z,12.90
2023-02-14T02:28:05.761Z,13.00
2023-02-14T02:31:26.827Z,13.43
2023-02-14T02:35:10.541Z,17.10
2023-02-14T02:38:30.096Z,14.83
2023-02-14T02:41:45.062Z,12.20
2023-02-14T02:44:57.798Z,13.10
2023-02-14T02:48:08.494Z,16.60
2023-02-14T02:51:36.304Z,12.40
2023-02-14T02:54:44.378Z,15.37
2023-02-14T02:57:49.811Z,11.17
2023-02-14T03:00:54.939Z,14.20
2023-02-14T03:04:18.814Z,12.47
2023-02-14T03:07:39.508Z,12.53
2023-02-14T03:10:42.845Z,14.30
2023-02-14T03:14:11.016Z,10.90
2023-02-14T03:17:42.201Z,14.30
2023-02-14T03:20:55.056Z,15.57
2023-02-14T03:24:06.641Z,13.33
2023-02-14T03:27:16.741Z,12.03
2023-02-14T03:30:27.039Z,13.80
2023-02-14T03:33:34.675Z,10.93
2023-02-14T03:36:41.474Z,11.70
2023-02-14T03:39:57.851Z,9.40
2023-02-14T03:43:07.598Z,12.63
2023-02-14T03:46:16.574Z,13.00
2023-02-14T03:49:23.199Z,12.87
2023-02-14T03:52:28.180Z,14.40
2023-02-14T03:55:38.936Z,14.70
2023-02-14T03:58:46.180Z,13.33
2023-02-14T04:01:54.867Z,15.53
2023-02-14T04:05:01.032Z,15.80
2023-02-14T04:08:04.202Z,14.10
2023-02-14T04:11:09.091Z,14.27
2023-02-14T04:14:12.265Z,14.10
2023-02-14T04:17:32.959Z,12.27
2023-02-14T04:20:37.232Z,13.80
2023-02-14T04:23:40.519Z,15.50
2023-02-14T04:26:54.318Z,15.03
2023-02-14T04:29:57.592Z,18.27
2023-02-14T04:33:00.821Z,12.87
2023-02-14T04:36:04.069Z,11.20
2023-02-14T04:39:07.277Z,13.60
2023-02-14T04:42:11.975Z,10.10
2023-02-14T04:45:15.632Z,12.37
2023-02-14T04:48:18.811Z,11.70
2023-02-14T04:51:21.990Z,13.10
2023-02-14T04:54:25.311Z,13.63
2023-02-14T04:57:29.868Z,16.63
2023-02-14T05:00:33.078Z,13.73
2023-02-14T05:03:36.517Z,15.90
2023-02-14T05:06:39.696Z,23.07
2023-02-14T05:09:42.925Z,16.70
2023-02-14T05:12:47.454Z,17.17
2023-02-14T05:15:50.617Z,13.17
2023-02-14T05:18:53.800Z,10.63
2023-02-14T05:21:57.016Z,15.50
2023-02-14T05:25:00.179Z,16.20
2023-02-14T05:28:04.748Z,14.13
2023-02-14T05:31:08.163Z,11.40
2023-02-14T05:34:11.467Z,13.40
2023-02-14T05:37:14.629Z,16.87
2023-02-14T05:40:18.013Z,12.67
2023-02-14T05:43:22.926Z,14.20
2023-02-14T05:46:26.159Z,14.93
2023-02-14T05:49:29.423Z,13.67
2023-02-14T05:52:32.610Z,13.60
2023-02-14T05:55:35.809Z,9.80
2023-02-14T05:58:40.386Z,13.40
2023-02-14T06:01:43.556Z,13.73
2023-02-14T06:04:46.725Z,18.80
2023-02-14T06:07:51.424Z,20.00
2023-02-14T06:10:54.617Z,14.30
2023-02-14T06:13:59.212Z,16.23
2023-02-14T06:17:02.493Z,12.90
2023-02-14T06:20:07.402Z,14.07
2023-02-14T06:23:11.135Z,14.37
2023-02-14T06:26:14.339Z,21.07
2023-02-14T06:29:19.484Z,14.60
2023-02-14T06:32:22.795Z,13.57
2023-02-14T06:35:26.003Z,17.13
2023-02-14T06:38:29.200Z,17.83
2023-02-14T06:41:32.362Z,15.20
2023-02-14T06:44:36.911Z,13.87
2023-02-14T06:47:41.182Z,14.00
2023-02-14T06:50:44.381Z,14.93
2023-02-14T06:53:47.558Z,18.23
2023-02-14T06:56:50.728Z,22.03
2023-02-14T06:59:55.415Z,21.13
2023-02-14T07:02:58.933Z,18.47
2023-02-14T07:06:02.138Z,16.80
2023-02-14T07:09:05.874Z,15.70
2023-02-14T07:12:09.293Z,17.30
2023-02-14T07:15:14.588Z,16.00
2023-02-14T07:18:17.781Z,15.40
2023-02-14T07:21:20.984Z,16.60
2023-02-14T07:24:24.431Z,15.90
2023-02-14T07:27:27.714Z,17.60
2023-02-14T07:30:32.854Z,16.50
2023-02-14T07:33:36.080Z,17.07
2023-02-14T07:36:39.559Z,14.17
2023-02-14T07:39:42.745Z,15.60
2023-02-14T07:42:45.938Z,22.00
2023-02-14T07:45:50.610Z,20.57
2023-02-14T07:48:53.814Z,26.13
2023-02-14T07:51:56.985Z,17.30
2023-02-14T07:55:00.289Z,18.67
2023-02-14T07:58:03.568Z,16.87
2023-02-14T08:01:08.753Z,20.90
2023-02-14T08:04:13.927Z,25.13
2023-02-14T08:07:17.172Z,29.13
2023-02-14T08:10:20.558Z,22.97
2023-02-14T08:13:23.840Z,18.87
2023-02-14T08:16:28.570Z,28.80
2023-02-14T08:19:31.928Z,24.57
2023-02-14T08:22:35.368Z,26.23
2023-02-14T08:25:38.540Z,21.20
2023-02-14T08:28:41.736Z,25.90
2023-02-14T08:31:47.530Z,25.90
2023-02-14T08:34:50.771Z,22.83
2023-02-14T08:37:54.089Z,21.40
2023-02-14T08:41:02.722Z,23.43
2023-02-14T08:44:07.712Z,20.53
2023-02-14T08:47:12.812Z,28.43
2023-02-14T08:50:18.844Z,18.70
2023-02-14T08:53:22.818Z,25.03
2023-02-14T08:56:25.986Z,17.33
2023-02-14T08:59:29.190Z,23.87
2023-02-14T09:02:34.423Z,22.37
2023-02-14T09:05:37.642Z,24.43
2023-02-14T09:08:41.487Z,18.93
2023-02-14T09:11:44.728Z,22.57
2023-02-14T09:14:47.930Z,19.43
2023-02-14T09:17:52.529Z,22.33
2023-02-14T09:20:55.762Z,22.57
2023-02-14T09:23:59.035Z,20.90
2023-02-14T09:27:02.911Z,18.00
2023-02-14T09:30:07.017Z,22.00
2023-02-14T09:33:11.726Z,18.70
2023-02-14T09:36:32.375Z,20.93
2023-02-14T09:39:37.154Z,18.60
2023-02-14T09:42:52.668Z,19.00
2023-02-14T09:45:59.485Z,19.47
2023-02-14T09:49:04.250Z,18.23
2023-02-14T09:52:12.305Z,19.13
2023-02-14T09:55:18.030Z,18.03
2023-02-14T09:58:28.159Z,14.90
2023-02-14T10:01:37.189Z,16.37
2023-02-14T10:04:48.053Z,17.87
2023-02-14T10:08:01.358Z,16.23
2023-02-14T10:11:09.770Z,18.90
2023-02-14T10:14:17.133Z,17.15
2023-02-14T10:17:28.014Z,18.42
2023-02-14T10:20:38.689Z,19.40
2023-02-14T10:23:46.873Z,17.85
2023-02-14T10:26:51.712Z,16.63
2023-02-14T10:29:55.272Z,17.83
2023-02-14T10:33:04.701Z,17.42
2023-02-14T10:36:19.086Z,17.33
2023-02-14T10:39:49.470Z,17.40
2023-02-14T10:43:00.627Z,17.38
2023-02-14T10:46:12.004Z,16.10
2023-02-14T10:49:28.538Z,16.40
2023-02-14T10:52:38.855Z,16.88
2023-02-14T10:55:50.221Z,16.25
2023-02-14T10:58:57.811Z,18.25
2023-02-14T11:02:02.590Z,16.50
2023-02-14T11:05:07.369Z,17.15
2023-02-14T11:08:25.228Z,17.70
2023-02-14T11:11:36.094Z,17.90
2023-02-14T11:14:41.113Z,17.70
2023-02-14T11:17:44.436Z,16.45
2023-02-14T11:21:02.048Z,19.88
2023-02-14T11:24:18.250Z,16.38
2023-02-14T11:27:21.836Z,18.17
2023-02-14T11:30:31.348Z,18.20
2023-02-14T11:33:39.747Z,17.38
2023-02-14T11:36:43.452Z,17.75
2023-02-14T11:39:48.076Z,17.52
2023-02-14T11:42:54.674Z,16.88
2023-02-14T11:46:14.631Z,17.05
2023-02-14T11:49:30.305Z,16.63
2023-02-14T11:52:40.494Z,19.42
2023-02-14T11:55:45.427Z,16.67
2023-02-14T11:58:54.304Z,19.27
2023-02-14T12:01:59.909Z,17.85
2023-02-14T12:05:06.947Z,18.45
2023-02-14T12:08:11.114Z,16.65
2023-02-14T12:11:23.537Z,17.85
2023-02-14T12:14:29.537Z,18.90
2023-02-14T12:17:36.742Z,17.33
2023-02-14T12:20:45.353Z,19.35
2023-02-14T12:23:56.850Z,16.90
2023-02-14T12:27:11.726Z,17.75
2023-02-14T12:30:19.126Z,18.15
2023-02-14T12:33:26.005Z,17.60
2023-02-14T12:36:44.109Z,18.15
2023-02-14T12:40:04.284Z,18.83
2023-02-14T12:43:34.235Z,18.73
2023-02-14T12:47:00.134Z,17.55
2023-02-14T12:50:32.138Z,17.05
2023-02-14T12:53:52.277Z,18.52
2023-02-14T12:57:04.371Z,18.35
2023-02-14T13:00:24.180Z,18.70
2023-02-14T13:03:46.857Z,19.25
2023-02-14T13:06:55.866Z,18.65
2023-02-14T13:10:04.773Z,18.02
2023-02-14T13:13:13.613Z,18.30
2023-02-14T13:16:24.455Z,18.85
2023-02-14T13:19:38.298Z,19.08
2023-02-14T13:22:42.859Z,18.13
2023-02-14T13:25:51.558Z,18.85
2023-02-14T13:28:58.535Z,17.40
2023-02-14T13:32:05.402Z,18.63
2023-02-14T13:35:09.634Z,18.75
2023-02-14T13:38:16.823Z,18.13
2023-02-14T13:41:21.386Z,18.50
2023-02-14T13:44:43.080Z,19.20
2023-02-14T13:47:47.718Z,17.90
2023-02-14T13:50:55.029Z,18.88
2023-02-14T13:53:58.284Z,18.75
2023-02-14T13:57:03.190Z,19.10
2023-02-14T14:00:38.537Z,18.45
2023-02-14T14:03:58.818Z,18.27
2023-02-14T14:07:22.153Z,18.75
2023-02-14T14:10:44.897Z,18.70
2023-02-14T14:14:02.791Z,17.58
2023-02-14T14:17:27.821Z,18.90
2023-02-14T14:20:49.673Z,19.37
2023-02-14T14:24:13.685Z,20.70
2023-02-14T14:27:19.867Z,18.83
2023-02-14T14:30:28.543Z,17.13
2023-02-14T14:33:33.883Z,16.57
2023-02-14T14:36:38.426Z,18.80
2023-02-14T14:39:41.602Z,16.67
2023-02-14T14:42:44.925Z,15.60
2023-02-14T14:45:50.972Z,15.70
2023-02-14T14:48:56.597Z,15.27
2023-02-14T14:52:01.273Z,15.20
2023-02-14T14:55:07.231Z,15.17
2023-02-14T14:58:33.133Z,15.93
2023-02-14T15:01:40.043Z,14.07
2023-02-14T15:04:43.259Z,14.60
2023-02-14T15:07:47.837Z,16.17
2023-02-14T15:10:57.381Z,17.20
2023-02-14T15:13:59.854Z,14.70
2023-02-14T15:17:05.471Z,17.60
2023-02-14T15:20:12.375Z,14.63
2023-02-14T15:23:22.473Z,14.87
2023-02-14T15:26:35.665Z,15.30
2023-02-14T15:29:39.048Z,14.07
2023-02-14T15:32:42.696Z,25.37
2023-02-14T15:35:46.067Z,17.70
2023-02-14T15:38:51.064Z,18.90
2023-02-14T15:41:55.853Z,18.30
2023-02-14T15:45:25.456Z,17.87
2023-02-14T15:48:34.408Z,20.80
2023-02-14T15:51:39.969Z,16.50
2023-02-14T15:54:47.397Z,19.20
2023-02-14T15:57:56.862Z,15.57
2023-02-14T16:01:01.651Z,15.53
2023-02-14T16:04:08.681Z,20.73
2023-02-14T16:07:28.082Z,14.83
2023-02-14T16:10:34.470Z,15.73
2023-02-14T16:13:39.730Z,15.63
2023-02-14T16:17:01.629Z,18.03
2023-02-14T16:20:22.830Z,19.70
2023-02-14T16:23:28.894Z,29.33
2023-02-14T16:26:34.130Z,23.97
2023-02-14T16:29:37.730Z,28.40
2023-02-14T16:32:42.826Z,27.60
2023-02-14T16:35:48.246Z,23.20
2023-02-14T16:38:53.079Z,26.83
2023-02-14T16:41:58.235Z,26.57
2023-02-14T16:45:03.751Z,24.60
2023-02-14T16:48:09.072Z,20.37
2023-02-14T16:51:15.418Z,19.50
2023-02-14T16:54:21.937Z,25.43
2023-02-14T16:57:29.594Z,24.83
2023-02-14T17:00:33.518Z,21.93
2023-02-14T17:03:36.712Z,20.00
2023-02-14T17:06:47.188Z,26.37
2023-02-14T17:09:54.884Z,18.30
2023-02-14T17:13:01.736Z,20.97
2023-02-14T17:16:07.053Z,32.67
2023-02-14T17:19:12.016Z,24.60
2023-02-14T17:22:16.322Z,26.77
2023-02-14T17:25:20.385Z,27.97
2023-02-14T17:28:28.125Z,29.23
2023-02-14T17:31:31.554Z,25.53
2023-02-14T17:34:36.081Z,21.83
2023-02-14T17:37:40.183Z,23.87
2023-02-14T17:40:45.060Z,23.43
2023-02-14T17:43:52.441Z,18.73
2023-02-14T17:46:57.692Z,25.83
2023-02-14T17:50:03.945Z,22.30
2023-02-14T17:53:09.896Z,20.90
2023-02-14T17:56:15.757Z,21.50
2023-02-14T17:59:22.945Z,19.03
2023-02-14T18:02:27.861Z,18.60
2023-02-14T18:05:33.753Z,20.97
2023-02-14T18:08:39.992Z,20.83
2023-02-14T18:11:46.430Z,22.60
2023-02-14T18:14:57.040Z,23.50
2023-02-14T18:18:01.461Z,20.33
2023-02-14T18:21:09.044Z,22.97
2023-02-14T18:24:15.789Z,24.57
2023-02-14T18:27:19.845Z,26.47
2023-02-14T18:30:26.017Z,26.67
2023-02-14T18:33:30.435Z,21.37
2023-02-14T18:36:38.232Z,21.53
2023-02-14T18:39:43.214Z,24.43
2023-02-14T18:42:48.231Z,18.67
2023-02-14T18:45:54.505Z,24.83
2023-02-14T18:48:59.495Z,23.23
2023-02-14T18:52:05.509Z,22.47
2023-02-14T18:55:11.645Z,20.27
2023-02-14T18:58:16.446Z,23.03
2023-02-14T19:01:26.611Z,19.17
2023-02-14T19:04:34.290Z,23.10
2023-02-14T19:07:39.527Z,22.73
2023-02-14T19:10:44.413Z,22.63
2023-02-14T19:13:53.537Z,21.50
2023-02-14T19:16:59.775Z,21.60
2023-02-14T19:20:09.264Z,19.47
2023-02-14T19:23:14.606Z,23.73
2023-02-14T19:26:21.246Z,22.97
2023-02-14T19:29:25.960Z,23.47
2023-02-14T19:32:31.778Z,20.20
2023-02-14T19:35:36.864Z,23.67
2023-02-14T19:38:44.468Z,19.80
2023-02-14T19:41:51.128Z,25.80
2023-02-14T19:44:57.289Z,19.07
2023-02-14T19:48:06.626Z,23.70
2023-02-14T19:51:15.655Z,27.87
2023-02-14T19:54:22.426Z,25.70
2023-02-14T19:57:27.598Z,24.97
2023-02-14T20:00:41.850Z,22.90
2023-02-14T20:03:55.156Z,24.43
2023-02-14T20:07:01.067Z,23.13
2023-02-14T20:10:06.517Z,21.10
2023-02-14T20:13:12.877Z,20.93
2023-02-14T20:16:19.101Z,22.27
2023-02-14T20:19:32.874Z,23.30
2023-02-14T20:22:39.090Z,29.20
2023-02-14T20:25:45.059Z,28.63
2023-02-14T20:28:51.528Z,25.10
2023-02-14T20:31:58.701Z,30.10
2023-02-14T20:35:06.220Z,33.27
2023-02-14T20:38:11.502Z,44.47
2023-02-14T20:41:32.990Z,29.53
2023-02-14T20:44:38.945Z,24.03
2023-02-14T20:47:44.160Z,23.60
2023-02-14T20:50:54.794Z,25.63
2023-02-14T20:54:02.470Z,23.63
2023-02-14T20:57:08.677Z,20.43
2023-02-14T21:00:16.022Z,25.43
2023-02-14T21:03:24.191Z,26.80
2023-02-14T21:06:33.320Z,24.87
2023-02-14T21:09:39.855Z,24.27
2023-02-14T21:12:47.885Z,21.30
2023-02-14T21:15:57.789Z,25.67
2023-02-14T21:19:04.820Z,20.63
2023-02-14T21:22:12.747Z,24.23
2023-02-14T21:25:17.533Z,22.13
2023-02-14T21:28:23.300Z,24.20
2023-02-14T21:31:28.505Z,21.40
2023-02-14T21:34:35.913Z,23.77
2023-02-14T21:37:42.668Z,32.27
2023-02-14T21:40:47.497Z,27.60
2023-02-14T21:43:54.441Z,27.87
2023-02-14T21:46:59.124Z,32.27
2023-02-14T21:50:20.634Z,26.47
2023-02-14T21:53:25.662Z,30.43
2023-02-14T21:56:30.672Z,31.47
2023-02-14T21:59:35.573Z,27.70
2023-02-14T22:02:40.091Z,22.17
2023-02-14T22:05:43.995Z,25.40
2023-02-14T22:08:52.940Z,25.37
2023-02-14T22:11:56.236Z,24.20
2023-02-14T22:15:01.583Z,25.73
2023-02-14T22:18:07.606Z,28.60
2023-02-14T22:21:14.019Z,31.93
2023-02-14T22:24:18.565Z,25.30
2023-02-14T22:27:21.723Z,29.00
2023-02-14T22:30:25.254Z,25.67
2023-02-14T22:33:28.423Z,30.23
2023-02-14T22:36:31.843Z,29.13
2023-02-14T22:39:36.373Z,26.67
2023-02-14T22:42:39.553Z,30.03
2023-02-14T22:45:42.751Z,31.60
2023-02-14T22:48:46.099Z,31.20
2023-02-14T22:51:49.281Z,27.70
2023-02-14T22:54:54.774Z,27.90
2023-02-14T22:57:58.203Z,29.10
2023-02-14T23:01:01.387Z,31.93
2023-02-14T23:04:05.767Z,26.97
2023-02-14T23:07:11.332Z,27.27
2023-02-14T23:10:15.901Z,26.53
2023-02-14T23:13:36.406Z,30.50
2023-02-14T23:16:57.058Z,28.30
2023-02-14T23:20:17.877Z,28.90
2023-02-14T23:23:21.073Z,27.37
2023-02-14T23:26:25.590Z,27.07
2023-02-14T23:29:28.781Z,25.23
2023-02-14T23:32:31.940Z,26.10
2023-02-14T23:35:37.569Z,27.43
2023-02-14T23:38:40.722Z,31.17
2023-02-14T23:41:51.171Z,28.90
2023-02-14T23:44:54.523Z,24.43
2023-02-14T23:47:57.695Z,31.27
2023-02-14T23:51:01.412Z,31.13
2023-02-14T23:54:05.019Z,31.63
2023-02-14T23:57:10.390Z,34.33
